createdAt,value
2018-06-19T00:00:20.834Z,17.9
2018-06-19T00:01:22.228Z,17.9
2018-06-19T00:02:23.620Z,17.8
2018-06-19T00:03:25.015Z,17.8
2018-06-19T00:04:26.404Z,17.9
2018-06-19T00:05:27.797Z,17.8
2018-06-19T00:06:29.196Z,17.8
2018-06-19T00:07:30.586Z,17.8
2018-06-19T00:08:31.983Z,17.9
2018-06-19T00:09:33.375Z,17.8
2018-06-19T00:10:34.765Z,17.8
2018-06-19T00:11:36.156Z,17.8
2018-06-19T00:12:37.555Z,17.8
2018-06-19T00:13:38.944Z,17.8
2018-06-19T00:14:40.370Z,17.9
2018-06-19T00:15:41.765Z,17.8
2018-06-19T00:16:43.160Z,17.8
2018-06-19T00:17:44.553Z,17.8
2018-06-19T00:18:45.946Z,17.8
2018-06-19T00:19:47.335Z,17.8
2018-06-19T00:20:48.727Z,17.8
2018-06-19T00:21:50.124Z,17.7
2018-06-19T00:22:51.515Z,17.7
2018-06-19T00:23:52.905Z,17.7
2018-06-19T00:24:54.295Z,17.7
2018-06-19T00:25:55.686Z,17.7
2018-06-19T00:26:57.080Z,17.7
2018-06-19T00:27:58.475Z,17.7
2018-06-19T00:28:59.868Z,17.7
2018-06-19T00:30:01.264Z,17.6
2018-06-19T00:31:02.652Z,17.6
2018-06-19T00:32:04.042Z,17.5
2018-06-19T00:33:05.436Z,17.6
2018-06-19T00:34:06.827Z,17.6
2018-06-19T00:35:08.223Z,17.6
2018-06-19T00:36:09.615Z,17.5
2018-06-19T00:37:11.006Z,17.6
2018-06-19T00:38:12.399Z,17.6
2018-06-19T00:39:13.791Z,17.5
2018-06-19T00:40:15.180Z,17.5
2018-06-19T00:41:16.570Z,17.5
2018-06-19T00:42:17.965Z,17.4
2018-06-19T00:43:19.357Z,17.5
2018-06-19T00:44:20.752Z,17.5
2018-06-19T00:45:22.141Z,17.4
2018-06-19T00:46:23.531Z,17.4
2018-06-19T00:47:24.925Z,17.4
2018-06-19T00:48:26.317Z,17.4
2018-06-19T00:49:27.710Z,17.4
2018-06-19T00:50:29.107Z,17.4
2018-06-19T00:51:30.499Z,17.4
2018-06-19T00:52:31.890Z,17.4
2018-06-19T00:53:33.279Z,17.4
2018-06-19T00:54:34.674Z,17.4
2018-06-19T00:55:36.061Z,17.4
2018-06-19T00:56:37.471Z,17.4
2018-06-19T00:57:38.845Z,17.4
2018-06-19T00:58:40.240Z,17.4
2018-06-19T00:59:41.631Z,17.3
2018-06-19T01:00:43.023Z,17.3
2018-06-19T01:01:44.416Z,17.3
2018-06-19T01:02:45.864Z,17.3
2018-06-19T01:03:47.255Z,17.3
2018-06-19T01:04:48.649Z,17.3
2018-06-19T01:05:50.043Z,17.2
2018-06-19T01:06:51.441Z,17.2
2018-06-19T01:07:52.829Z,17.1
2018-06-19T01:08:54.225Z,17.2
2018-06-19T01:09:55.611Z,17.2
2018-06-19T01:10:57.008Z,17.2
2018-06-19T01:11:58.402Z,17.2
2018-06-19T01:12:59.794Z,17.1
2018-06-19T01:14:01.185Z,17.1
2018-06-19T01:15:02.591Z,17.2
2018-06-19T01:16:03.968Z,17.2
2018-06-19T01:17:05.366Z,17.1
2018-06-19T01:18:06.752Z,17.1
2018-06-19T01:19:08.146Z,17.0
2018-06-19T01:20:09.540Z,17.0
2018-06-19T01:21:10.929Z,17.0
2018-06-19T01:22:12.320Z,17.0
2018-06-19T01:23:13.711Z,17.0
2018-06-19T01:24:15.107Z,17.0
2018-06-19T01:25:16.501Z,17.1
2018-06-19T01:26:17.894Z,17.1
2018-06-19T01:27:19.285Z,17.0
2018-06-19T01:28:20.676Z,17.0
2018-06-19T01:29:22.072Z,17.0
2018-06-19T01:30:23.463Z,17.0
2018-06-19T01:31:24.854Z,17.0
2018-06-19T01:32:26.250Z,16.9
2018-06-19T01:33:27.639Z,17.0
2018-06-19T01:34:29.035Z,16.9
2018-06-19T01:35:30.426Z,17.0
2018-06-19T01:36:31.816Z,16.9
2018-06-19T01:37:33.205Z,16.9
2018-06-19T01:38:34.599Z,16.9
2018-06-19T01:39:35.989Z,16.9
2018-06-19T01:40:37.382Z,16.9
2018-06-19T01:41:38.777Z,16.8
2018-06-19T01:42:40.164Z,16.9
2018-06-19T01:43:41.556Z,16.9
2018-06-19T01:44:42.946Z,16.8
2018-06-19T01:45:44.339Z,17.0
2018-06-19T01:46:45.732Z,16.9
2018-06-19T01:47:47.123Z,16.9
2018-06-19T01:48:48.567Z,16.9
2018-06-19T01:49:49.945Z,16.9
2018-06-19T01:50:51.452Z,16.9
2018-06-19T01:51:52.843Z,16.9
2018-06-19T01:52:54.234Z,16.9
2018-06-19T01:53:55.630Z,16.9
2018-06-19T01:54:57.020Z,16.9
2018-06-19T01:55:58.412Z,16.9
2018-06-19T01:56:59.803Z,16.8
2018-06-19T01:58:01.196Z,16.8
2018-06-19T01:59:02.584Z,16.9
2018-06-19T02:00:03.972Z,16.8
2018-06-19T02:01:05.367Z,16.9
2018-06-19T02:02:06.760Z,16.9
2018-06-19T02:03:08.156Z,16.8
2018-06-19T02:04:09.549Z,16.8
2018-06-19T02:05:10.940Z,16.8
2018-06-19T02:06:12.332Z,16.8
2018-06-19T02:07:13.725Z,16.9
2018-06-19T02:08:15.121Z,16.7
2018-06-19T02:09:16.511Z,16.8
2018-06-19T02:10:17.908Z,16.8
2018-06-19T02:11:19.302Z,16.8
2018-06-19T02:12:20.693Z,16.9
2018-06-19T02:13:22.083Z,16.8
2018-06-19T02:14:23.474Z,16.8
2018-06-19T02:15:24.867Z,16.8
2018-06-19T02:16:26.309Z,16.8
2018-06-19T02:17:27.655Z,16.8
2018-06-19T02:18:29.047Z,16.8
2018-06-19T02:19:30.438Z,16.8
2018-06-19T02:20:31.830Z,16.8
2018-06-19T02:21:33.219Z,16.8
2018-06-19T02:22:34.610Z,16.8
2018-06-19T02:23:36.000Z,16.8
2018-06-19T02:24:37.395Z,16.7
2018-06-19T02:25:38.784Z,16.8
2018-06-19T02:26:40.176Z,16.7
2018-06-19T02:27:41.567Z,16.7
2018-06-19T02:28:42.960Z,16.7
2018-06-19T02:29:44.411Z,16.7
2018-06-19T02:30:45.810Z,16.8
2018-06-19T02:31:47.199Z,16.7
2018-06-19T02:32:48.591Z,16.7
2018-06-19T02:33:49.981Z,16.7
2018-06-19T02:34:51.376Z,16.7
2018-06-19T02:35:52.767Z,16.7
2018-06-19T02:36:54.159Z,16.6
2018-06-19T02:37:55.572Z,16.6
2018-06-19T02:38:56.974Z,16.7
2018-06-19T02:39:58.361Z,16.7
2018-06-19T02:40:59.754Z,16.7
2018-06-19T02:42:01.152Z,16.7
2018-06-19T02:43:02.539Z,16.7
2018-06-19T02:44:03.932Z,16.7
2018-06-19T02:45:05.326Z,16.7
2018-06-19T02:46:06.716Z,16.7
2018-06-19T02:47:08.107Z,16.6
2018-06-19T02:48:09.500Z,16.7
2018-06-19T02:49:10.893Z,16.7
2018-06-19T02:50:12.282Z,16.7
2018-06-19T02:51:13.689Z,16.7
2018-06-19T02:52:15.068Z,16.7
2018-06-19T02:53:16.463Z,16.6
2018-06-19T02:54:17.852Z,16.6
2018-06-19T02:55:19.242Z,16.5
2018-06-19T02:56:20.632Z,16.6
2018-06-19T02:57:22.027Z,16.6
2018-06-19T02:58:23.418Z,16.6
2018-06-19T02:59:24.813Z,16.6
2018-06-19T03:00:26.233Z,16.7
2018-06-19T03:01:27.598Z,16.6
2018-06-19T03:02:28.984Z,16.6
2018-06-19T03:03:30.377Z,16.6
2018-06-19T03:04:31.769Z,16.7
2018-06-19T03:05:33.163Z,16.6
2018-06-19T03:06:34.564Z,16.6
2018-06-19T03:07:35.965Z,16.6
2018-06-19T03:08:37.355Z,16.6
2018-06-19T03:09:38.750Z,16.6
2018-06-19T03:10:40.147Z,16.6
2018-06-19T03:11:41.539Z,16.5
2018-06-19T03:12:42.934Z,16.5
2018-06-19T03:13:44.328Z,16.6
2018-06-19T03:14:45.726Z,16.5
2018-06-19T03:15:47.117Z,16.6
2018-06-19T03:16:48.510Z,16.5
2018-06-19T03:17:49.906Z,16.6
2018-06-19T03:18:51.295Z,16.6
2018-06-19T03:19:52.692Z,16.5
2018-06-19T03:20:54.089Z,16.6
2018-06-19T03:21:55.482Z,16.6
2018-06-19T03:22:56.874Z,16.6
2018-06-19T03:23:58.268Z,16.5
2018-06-19T03:24:59.662Z,16.5
2018-06-19T03:26:01.118Z,16.5
2018-06-19T03:27:02.579Z,16.6
2018-06-19T03:28:03.975Z,16.6
2018-06-19T03:29:05.367Z,16.5
2018-06-19T03:30:06.855Z,16.6
2018-06-19T03:31:08.154Z,16.5
2018-06-19T03:32:09.551Z,16.6
2018-06-19T03:33:10.949Z,16.6
2018-06-19T03:34:12.345Z,16.6
2018-06-19T03:35:13.744Z,16.6
2018-06-19T03:36:15.137Z,16.6
2018-06-19T03:37:16.531Z,16.6
2018-06-19T03:38:17.922Z,16.6
2018-06-19T03:39:19.313Z,16.7
2018-06-19T03:40:20.710Z,16.6
2018-06-19T03:41:22.105Z,16.6
2018-06-19T03:42:23.503Z,16.7
2018-06-19T03:43:24.901Z,16.7
2018-06-19T03:44:26.294Z,16.7
2018-06-19T03:45:27.692Z,16.6
2018-06-19T03:46:29.086Z,16.7
2018-06-19T03:47:30.488Z,16.7
2018-06-19T03:48:31.878Z,16.7
2018-06-19T03:49:33.277Z,16.8
2018-06-19T03:50:34.677Z,16.8
2018-06-19T03:51:36.069Z,16.8
2018-06-19T03:52:37.464Z,16.7
2018-06-19T03:53:38.863Z,16.8
2018-06-19T03:54:40.257Z,16.8
2018-06-19T03:55:41.654Z,16.8
2018-06-19T03:56:43.053Z,16.8
2018-06-19T03:57:44.458Z,16.8
2018-06-19T03:58:45.854Z,16.8
2018-06-19T03:59:47.249Z,16.7
2018-06-19T04:00:48.646Z,16.7
2018-06-19T04:01:50.042Z,16.8
2018-06-19T04:02:51.436Z,16.8
2018-06-19T04:03:52.832Z,16.8
2018-06-19T04:04:54.231Z,16.8
2018-06-19T04:05:55.626Z,16.8
2018-06-19T04:06:57.017Z,16.8
2018-06-19T04:07:58.413Z,16.8
2018-06-19T04:08:59.808Z,16.8
2018-06-19T04:10:01.204Z,16.9
2018-06-19T04:11:02.600Z,16.8
2018-06-19T04:12:04.008Z,16.9
2018-06-19T04:13:05.390Z,16.9
2018-06-19T04:14:06.826Z,16.9
2018-06-19T04:15:08.219Z,17.0
2018-06-19T04:16:09.613Z,17.1
2018-06-19T04:17:11.039Z,17.0
2018-06-19T04:18:12.405Z,17.1
2018-06-19T04:19:13.803Z,17.1
2018-06-19T04:20:15.197Z,17.1
2018-06-19T04:21:16.589Z,17.2
2018-06-19T04:22:17.983Z,17.2
2018-06-19T04:23:19.383Z,17.3
2018-06-19T04:24:20.776Z,17.3
2018-06-19T04:25:22.173Z,17.4
2018-06-19T04:26:23.576Z,17.3
2018-06-19T04:27:25.070Z,17.4
2018-06-19T04:28:26.466Z,17.4
2018-06-19T04:29:27.860Z,17.5
2018-06-19T04:30:29.258Z,17.5
2018-06-19T04:31:30.657Z,17.4
2018-06-19T04:32:32.050Z,17.6
2018-06-19T04:33:33.465Z,17.5
2018-06-19T04:34:34.850Z,17.6
2018-06-19T04:35:36.241Z,17.6
2018-06-19T04:36:37.637Z,17.6
2018-06-19T04:37:39.033Z,17.5
2018-06-19T04:38:40.428Z,17.5
2018-06-19T04:39:41.823Z,17.6
2018-06-19T04:40:43.221Z,17.6
2018-06-19T04:41:44.618Z,17.5
2018-06-19T04:42:46.011Z,17.4
2018-06-19T04:43:47.404Z,17.4
2018-06-19T04:44:48.800Z,17.5
2018-06-19T04:45:50.199Z,17.6
2018-06-19T04:46:51.595Z,17.6
2018-06-19T04:47:52.990Z,17.5
2018-06-19T04:48:54.386Z,17.6
2018-06-19T04:49:55.783Z,17.7
2018-06-19T04:50:57.177Z,17.6
2018-06-19T04:51:58.574Z,17.6
2018-06-19T04:52:59.970Z,17.6
2018-06-19T04:54:01.367Z,17.6
2018-06-19T04:55:02.767Z,17.6
2018-06-19T04:56:04.159Z,17.7
2018-06-19T04:57:05.557Z,17.7
2018-06-19T04:58:06.950Z,17.6
2018-06-19T04:59:08.347Z,17.7
2018-06-19T05:00:09.743Z,17.6
2018-06-19T05:01:11.253Z,17.7
2018-06-19T05:02:12.672Z,17.7
2018-06-19T05:03:14.070Z,17.6
2018-06-19T05:04:15.464Z,17.7
2018-06-19T05:05:16.859Z,17.8
2018-06-19T05:06:18.257Z,17.8
2018-06-19T05:07:19.655Z,17.8
2018-06-19T05:08:21.050Z,17.7
2018-06-19T05:09:22.449Z,17.8
2018-06-19T05:10:23.841Z,17.8
2018-06-19T05:11:25.236Z,17.8
2018-06-19T05:12:26.633Z,17.8
2018-06-19T05:13:28.028Z,17.8
2018-06-19T05:14:29.425Z,17.7
2018-06-19T05:15:30.820Z,17.9
2018-06-19T05:16:32.223Z,17.8
2018-06-19T05:17:33.624Z,17.8
2018-06-19T05:18:35.016Z,17.8
2018-06-19T05:19:36.414Z,17.7
2018-06-19T05:20:37.810Z,17.8
2018-06-19T05:21:39.209Z,17.7
2018-06-19T05:22:40.605Z,17.9
2018-06-19T05:23:42.002Z,17.8
2018-06-19T05:24:43.401Z,17.8
2018-06-19T05:25:44.797Z,17.7
2018-06-19T05:26:46.191Z,17.7
2018-06-19T05:27:47.588Z,17.8
2018-06-19T05:28:48.985Z,17.8
2018-06-19T05:29:50.380Z,17.9
2018-06-19T05:30:51.779Z,17.9
2018-06-19T05:31:53.174Z,17.9
2018-06-19T05:32:54.569Z,17.9
2018-06-19T05:33:55.975Z,17.9
2018-06-19T05:34:57.386Z,17.9
2018-06-19T05:35:58.779Z,17.9
2018-06-19T05:37:00.173Z,17.9
2018-06-19T05:38:01.576Z,17.9
2018-06-19T05:39:02.965Z,17.9
2018-06-19T05:40:04.362Z,18.0
2018-06-19T05:41:05.758Z,17.9
2018-06-19T05:42:07.153Z,18.0
2018-06-19T05:43:08.553Z,18.0
2018-06-19T05:44:09.948Z,18.1
2018-06-19T05:45:11.373Z,18.1
2018-06-19T05:46:12.784Z,18.1
2018-06-19T05:47:14.165Z,18.1
2018-06-19T05:48:15.562Z,18.1
2018-06-19T05:49:16.960Z,18.1
2018-06-19T05:50:18.356Z,18.2
2018-06-19T05:51:19.753Z,18.2
2018-06-19T05:52:21.150Z,18.3
2018-06-19T05:53:22.549Z,18.2
2018-06-19T05:54:23.942Z,18.2
2018-06-19T05:55:25.337Z,18.2
2018-06-19T05:56:26.737Z,18.3
2018-06-19T05:57:28.135Z,18.4
2018-06-19T05:58:29.532Z,18.4
2018-06-19T05:59:30.926Z,18.4
2018-06-19T06:00:32.321Z,18.3
2018-06-19T06:01:33.715Z,18.3
2018-06-19T06:02:35.111Z,18.3
2018-06-19T06:03:36.512Z,18.3
2018-06-19T06:04:37.909Z,18.4
2018-06-19T06:05:39.331Z,18.4
2018-06-19T06:06:40.720Z,18.4
2018-06-19T06:07:42.109Z,18.4
2018-06-19T06:08:43.506Z,18.4
2018-06-19T06:09:44.901Z,18.4
2018-06-19T06:10:46.300Z,18.4
2018-06-19T06:11:47.703Z,18.4
2018-06-19T06:12:49.094Z,18.5
2018-06-19T06:13:50.488Z,18.5
2018-06-19T06:14:51.889Z,18.5
2018-06-19T06:15:53.286Z,18.5
2018-06-19T06:16:54.679Z,18.5
2018-06-19T06:17:56.074Z,18.5
2018-06-19T06:18:57.475Z,18.5
2018-06-19T06:19:58.870Z,18.5
2018-06-19T06:21:00.272Z,18.6
2018-06-19T06:22:01.711Z,18.6
2018-06-19T06:23:03.058Z,18.7
2018-06-19T06:24:04.454Z,18.7
2018-06-19T06:25:05.849Z,18.7
2018-06-19T06:26:07.246Z,18.6
2018-06-19T06:27:08.644Z,18.6
2018-06-19T06:28:10.043Z,18.7
2018-06-19T06:29:11.493Z,18.7
2018-06-19T06:30:12.891Z,18.7
2018-06-19T06:31:14.292Z,18.8
2018-06-19T06:32:15.681Z,18.7
2018-06-19T06:33:17.082Z,18.8
2018-06-19T06:34:18.477Z,18.9
2018-06-19T06:35:19.881Z,18.9
2018-06-19T06:36:21.378Z,18.9
2018-06-19T06:37:22.796Z,18.9
2018-06-19T06:38:24.194Z,18.9
2018-06-19T06:39:25.590Z,18.8
2018-06-19T06:40:26.988Z,18.9
2018-06-19T06:41:28.389Z,19.0
2018-06-19T06:42:29.787Z,19.1
2018-06-19T06:43:31.185Z,19.1
2018-06-19T06:44:32.584Z,19.0
2018-06-19T06:45:33.977Z,19.1
2018-06-19T06:46:35.377Z,19.1
2018-06-19T06:47:36.775Z,19.1
2018-06-19T06:48:38.364Z,19.1
2018-06-19T06:49:39.771Z,19.3
2018-06-19T06:50:41.170Z,19.2
2018-06-19T06:51:42.566Z,19.2
2018-06-19T06:52:43.970Z,19.3
2018-06-19T06:53:45.368Z,19.2
2018-06-19T06:54:46.766Z,19.1
2018-06-19T06:55:48.165Z,19.3
2018-06-19T06:56:49.567Z,19.2
2018-06-19T06:57:50.963Z,19.3
2018-06-19T06:58:52.363Z,19.3
2018-06-19T06:59:53.761Z,19.3
2018-06-19T07:00:55.160Z,19.4
2018-06-19T07:01:56.556Z,19.4
2018-06-19T07:02:57.954Z,19.5
2018-06-19T07:03:59.354Z,19.5
2018-06-19T07:05:00.752Z,19.5
2018-06-19T07:06:02.154Z,19.5
2018-06-19T07:07:03.552Z,19.5
2018-06-19T07:08:04.950Z,19.4
2018-06-19T07:09:06.351Z,19.5
2018-06-19T07:10:07.760Z,19.5
2018-06-19T07:11:09.202Z,19.5
2018-06-19T07:12:10.555Z,19.6
2018-06-19T07:13:11.976Z,19.6
2018-06-19T07:14:13.378Z,19.6
2018-06-19T07:15:14.779Z,19.6
2018-06-19T07:16:16.176Z,19.7
2018-06-19T07:17:17.574Z,19.6
2018-06-19T07:18:18.974Z,19.5
2018-06-19T07:19:20.385Z,19.6
2018-06-19T07:20:21.766Z,19.6
2018-06-19T07:21:23.168Z,19.7
2018-06-19T07:22:24.599Z,19.7
2018-06-19T07:23:26.010Z,19.8
2018-06-19T07:24:27.461Z,19.9
2018-06-19T07:25:28.859Z,19.9
2018-06-19T07:26:30.248Z,19.8
2018-06-19T07:27:31.661Z,19.8
2018-06-19T07:28:33.060Z,19.9
2018-06-19T07:29:34.458Z,19.9
2018-06-19T07:30:35.857Z,19.9
2018-06-19T07:31:37.258Z,19.8
2018-06-19T07:32:38.683Z,19.8
2018-06-19T07:33:40.080Z,19.9
2018-06-19T07:34:41.480Z,19.8
2018-06-19T07:35:42.884Z,19.8
2018-06-19T07:36:44.330Z,19.9
2018-06-19T07:37:45.691Z,19.9
2018-06-19T07:38:47.094Z,19.9
2018-06-19T07:39:48.497Z,20.0
2018-06-19T07:40:49.893Z,20.0
2018-06-19T07:41:51.292Z,20.1
2018-06-19T07:42:52.698Z,20.0
2018-06-19T07:43:54.158Z,20.0
2018-06-19T07:44:55.495Z,20.1
2018-06-19T07:45:56.893Z,20.0
2018-06-19T07:46:58.300Z,19.9
2018-06-19T07:47:59.715Z,19.9
2018-06-19T07:49:01.163Z,20.0
2018-06-19T07:50:02.516Z,20.0
2018-06-19T07:51:03.918Z,20.0
2018-06-19T07:52:05.322Z,20.0
2018-06-19T07:53:06.738Z,20.1
2018-06-19T07:54:08.146Z,20.1
2018-06-19T07:55:09.539Z,20.0
2018-06-19T07:56:10.937Z,20.0
2018-06-19T07:57:12.385Z,20.0
2018-06-19T07:58:13.736Z,20.0
2018-06-19T07:59:15.143Z,19.9
2018-06-19T08:00:16.543Z,20.0
2018-06-19T08:01:17.942Z,20.0
2018-06-19T08:02:19.353Z,20.0
2018-06-19T08:03:20.750Z,20.2
2018-06-19T08:04:22.148Z,20.2
2018-06-19T08:05:23.547Z,20.1
2018-06-19T08:06:24.949Z,20.1
2018-06-19T08:07:26.344Z,20.2
2018-06-19T08:08:27.749Z,20.3
2018-06-19T08:09:29.184Z,20.3
2018-06-19T08:10:30.613Z,20.2
2018-06-19T08:11:32.014Z,20.2
2018-06-19T08:12:33.407Z,20.2
2018-06-19T08:13:34.871Z,20.2
2018-06-19T08:14:36.213Z,20.2
2018-06-19T08:15:37.606Z,20.3
2018-06-19T08:16:39.010Z,20.2
2018-06-19T08:17:40.404Z,20.2
2018-06-19T08:18:41.821Z,20.2
2018-06-19T08:19:43.222Z,20.2
2018-06-19T08:20:44.620Z,20.1
2018-06-19T08:21:46.020Z,20.1
2018-06-19T08:22:47.454Z,20.2
2018-06-19T08:23:48.822Z,20.1
2018-06-19T08:24:50.224Z,20.2
2018-06-19T08:25:51.617Z,20.2
2018-06-19T08:26:53.022Z,20.2
2018-06-19T08:27:54.418Z,20.2
2018-06-19T08:28:55.813Z,20.2
2018-06-19T08:29:57.218Z,20.2
2018-06-19T08:30:58.615Z,20.2
2018-06-19T08:32:00.018Z,20.1
2018-06-19T08:33:01.408Z,20.2
2018-06-19T08:34:02.810Z,20.0
2018-06-19T08:35:04.210Z,20.1
2018-06-19T08:36:05.610Z,20.1
2018-06-19T08:37:07.012Z,20.1
2018-06-19T08:38:08.405Z,20.2
2018-06-19T08:39:09.800Z,20.1
2018-06-19T08:40:11.202Z,20.1
2018-06-19T08:41:12.612Z,20.1
2018-06-19T08:42:14.008Z,20.1
2018-06-19T08:43:15.420Z,20.2
2018-06-19T08:44:16.820Z,20.1
2018-06-19T08:45:18.216Z,20.1
2018-06-19T08:46:19.620Z,20.2
2018-06-19T08:47:21.021Z,20.2
2018-06-19T08:48:22.422Z,20.3
2018-06-19T08:49:23.826Z,20.3
2018-06-19T08:50:25.222Z,20.2
2018-06-19T08:51:26.622Z,20.3
2018-06-19T08:52:28.032Z,20.2
2018-06-19T08:53:29.432Z,20.2
2018-06-19T08:54:30.832Z,20.2
2018-06-19T08:55:32.236Z,20.2
2018-06-19T08:56:33.640Z,20.3
2018-06-19T08:57:35.089Z,20.2
2018-06-19T08:58:36.537Z,20.3
2018-06-19T08:59:37.937Z,20.3
2018-06-19T09:00:39.337Z,20.4
2018-06-19T09:01:40.736Z,20.4
2018-06-19T09:02:42.138Z,20.4
2018-06-19T09:03:43.541Z,20.4
2018-06-19T09:04:44.937Z,20.4
2018-06-19T09:05:46.340Z,20.3
2018-06-19T09:06:47.755Z,20.4
2018-06-19T09:07:49.152Z,20.4
2018-06-19T09:08:50.552Z,20.4
2018-06-19T09:09:51.947Z,20.3
2018-06-19T09:10:53.351Z,20.3
2018-06-19T09:11:54.753Z,20.2
2018-06-19T09:12:56.150Z,20.1
2018-06-19T09:13:57.550Z,20.1
2018-06-19T09:14:58.942Z,20.1
2018-06-19T09:16:00.366Z,20.1
2018-06-19T09:17:01.760Z,20.2
2018-06-19T09:18:03.162Z,20.3
2018-06-19T09:19:04.598Z,20.3
2018-06-19T09:20:06.018Z,20.4
2018-06-19T09:21:07.398Z,20.5
2018-06-19T09:22:08.797Z,20.4
2018-06-19T09:23:10.189Z,20.4
2018-06-19T09:24:11.605Z,20.3
2018-06-19T09:25:13.008Z,20.4
2018-06-19T09:26:14.408Z,20.2
2018-06-19T09:27:15.807Z,20.2
2018-06-19T09:28:17.205Z,20.2
2018-06-19T09:29:18.614Z,20.3
2018-06-19T09:30:20.004Z,20.3
2018-06-19T09:31:21.451Z,20.4
2018-06-19T09:32:22.803Z,20.3
2018-06-19T09:33:24.200Z,20.5
2018-06-19T09:34:25.626Z,20.4
2018-06-19T09:35:27.023Z,20.4
2018-06-19T09:36:28.423Z,20.5
2018-06-19T09:37:29.824Z,20.6
2018-06-19T09:38:31.224Z,20.6
2018-06-19T09:39:32.624Z,20.6
2018-06-19T09:40:34.027Z,20.7
2018-06-19T09:41:35.430Z,20.7
2018-06-19T09:42:36.842Z,20.8
2018-06-19T09:43:38.252Z,20.9
2018-06-19T09:44:39.723Z,20.9
2018-06-19T09:45:41.127Z,20.9
2018-06-19T09:46:42.526Z,21.0
2018-06-19T09:47:43.924Z,21.0
2018-06-19T09:48:45.325Z,21.0
2018-06-19T09:49:46.731Z,20.9
2018-06-19T09:50:48.131Z,21.0
2018-06-19T09:51:49.531Z,21.0
2018-06-19T09:52:50.930Z,21.0
2018-06-19T09:53:52.336Z,21.0
2018-06-19T09:54:53.779Z,20.9
2018-06-19T09:55:55.183Z,20.9
2018-06-19T09:56:56.580Z,20.9
2018-06-19T09:57:57.983Z,21.0
2018-06-19T09:58:59.450Z,21.0
2018-06-19T10:00:00.779Z,21.0
2018-06-19T10:01:02.179Z,21.0
2018-06-19T10:02:03.576Z,21.1
2018-06-19T10:03:04.980Z,21.0
2018-06-19T10:04:06.395Z,21.1
2018-06-19T10:05:07.800Z,21.1
2018-06-19T10:06:09.221Z,21.2
2018-06-19T10:07:10.608Z,21.2
2018-06-19T10:08:12.001Z,21.1
2018-06-19T10:09:13.405Z,21.2
2018-06-19T10:10:14.964Z,21.3
2018-06-19T10:11:16.206Z,21.4
2018-06-19T10:12:17.701Z,21.4
2018-06-19T10:13:19.006Z,21.4
2018-06-19T10:14:20.404Z,21.5
2018-06-19T10:15:21.801Z,21.4
2018-06-19T10:16:23.206Z,21.5
2018-06-19T10:17:24.608Z,21.6
2018-06-19T10:18:26.040Z,21.6
2018-06-19T10:19:27.469Z,21.4
2018-06-19T10:20:28.836Z,21.4
2018-06-19T10:21:30.245Z,21.4
2018-06-19T10:22:31.659Z,21.4
2018-06-19T10:23:33.050Z,21.4
2018-06-19T10:24:34.454Z,21.5
2018-06-19T10:25:35.850Z,21.4
2018-06-19T10:26:37.247Z,21.6
2018-06-19T10:27:38.706Z,21.6
2018-06-19T10:28:40.165Z,21.7
2018-06-19T10:29:41.615Z,21.6
2018-06-19T10:30:43.084Z,21.5
2018-06-19T10:31:44.555Z,21.6
2018-06-19T10:32:45.974Z,21.5
2018-06-19T10:33:47.403Z,21.4
2018-06-19T10:34:48.808Z,21.4
2018-06-19T10:35:50.207Z,21.6
2018-06-19T10:36:51.607Z,21.6
2018-06-19T10:37:53.014Z,21.5
2018-06-19T10:38:54.410Z,21.6
2018-06-19T10:39:55.813Z,21.5
2018-06-19T10:40:57.211Z,21.4
2018-06-19T10:41:58.609Z,21.5
2018-06-19T10:43:00.009Z,21.4
2018-06-19T10:44:01.408Z,21.4
2018-06-19T10:45:02.811Z,21.3
2018-06-19T10:46:04.206Z,21.3
2018-06-19T10:47:05.607Z,21.2
2018-06-19T10:48:07.002Z,21.2
2018-06-19T10:49:08.406Z,21.0
2018-06-19T10:50:09.808Z,21.0
2018-06-19T10:51:11.208Z,21.0
2018-06-19T10:52:12.607Z,21.0
2018-06-19T10:53:14.010Z,21.0
2018-06-19T10:54:15.407Z,21.2
2018-06-19T10:55:16.847Z,21.3
2018-06-19T10:56:18.242Z,21.4
2018-06-19T10:57:19.644Z,21.5
2018-06-19T10:58:21.045Z,21.6
2018-06-19T10:59:22.449Z,21.6
2018-06-19T11:00:23.908Z,21.6
2018-06-19T11:01:25.305Z,21.7
2018-06-19T11:02:26.703Z,21.7
2018-06-19T11:03:28.148Z,21.7
2018-06-19T11:04:29.503Z,21.7
2018-06-19T11:05:30.916Z,21.6
2018-06-19T11:06:32.309Z,21.7
2018-06-19T11:07:33.711Z,21.6
2018-06-19T11:08:35.111Z,21.8
2018-06-19T11:09:36.507Z,21.7
2018-06-19T11:10:37.909Z,21.8
2018-06-19T11:11:39.310Z,22.0
2018-06-19T11:12:40.719Z,22.1
2018-06-19T11:13:42.123Z,22.0
2018-06-19T11:14:43.524Z,22.1
2018-06-19T11:15:44.921Z,22.1
2018-06-19T11:16:46.322Z,22.2
2018-06-19T11:17:47.800Z,22.1
2018-06-19T11:18:49.266Z,22.2
2018-06-19T11:19:50.667Z,22.1
2018-06-19T11:20:52.066Z,22.1
2018-06-19T11:21:53.472Z,22.0
2018-06-19T11:22:54.870Z,21.9
2018-06-19T11:23:56.304Z,21.9
2018-06-19T11:24:57.672Z,21.9
2018-06-19T11:25:59.072Z,22.0
2018-06-19T11:27:00.469Z,22.1
2018-06-19T11:28:01.867Z,22.2
2018-06-19T11:29:03.323Z,22.3
2018-06-19T11:30:04.671Z,22.4
2018-06-19T11:31:06.069Z,22.4
2018-06-19T11:32:07.467Z,22.5
2018-06-19T11:33:08.866Z,22.5
2018-06-19T11:34:10.270Z,22.4
2018-06-19T11:35:11.666Z,22.4
2018-06-19T11:36:13.109Z,22.3
2018-06-19T11:37:14.508Z,22.4
2018-06-19T11:38:15.902Z,22.4
2018-06-19T11:39:17.305Z,22.5
2018-06-19T11:40:18.703Z,22.5
2018-06-19T11:41:20.105Z,22.7
2018-06-19T11:42:21.504Z,22.6
2018-06-19T11:43:22.927Z,22.8
2018-06-19T11:44:24.301Z,22.8
2018-06-19T11:45:25.700Z,22.8
2018-06-19T11:46:27.098Z,22.7
2018-06-19T11:47:28.498Z,22.5
2018-06-19T11:48:29.900Z,22.7
2018-06-19T11:49:31.297Z,22.7
2018-06-19T11:50:32.701Z,22.7
2018-06-19T11:51:34.101Z,22.7
2018-06-19T11:52:35.498Z,22.6
2018-06-19T11:53:36.901Z,22.6
2018-06-19T11:54:38.308Z,22.4
2018-06-19T11:55:39.700Z,22.4
2018-06-19T11:56:41.137Z,22.3
2018-06-19T11:57:42.503Z,22.3
2018-06-19T11:58:43.897Z,22.4
2018-06-19T11:59:45.297Z,22.4
2018-06-19T12:00:46.695Z,22.4
2018-06-19T12:01:48.141Z,22.3
2018-06-19T12:02:49.496Z,22.3
2018-06-19T12:03:50.900Z,22.3
2018-06-19T12:04:52.319Z,22.3
2018-06-19T12:05:53.806Z,22.3
2018-06-19T12:06:55.204Z,22.3
2018-06-19T12:07:56.606Z,22.4
2018-06-19T12:08:58.006Z,22.4
2018-06-19T12:09:59.406Z,22.4
2018-06-19T12:11:00.807Z,22.5
2018-06-19T12:12:02.209Z,22.5
2018-06-19T12:13:03.612Z,22.5
2018-06-19T12:14:05.002Z,22.6
2018-06-19T12:15:06.402Z,22.5
2018-06-19T12:16:07.799Z,22.4
2018-06-19T12:17:09.201Z,22.3
2018-06-19T12:18:10.602Z,22.3
2018-06-19T12:19:12.006Z,22.3
2018-06-19T12:20:13.406Z,22.4
2018-06-19T12:21:14.803Z,22.4
2018-06-19T12:22:16.203Z,22.4
2018-06-19T12:23:17.602Z,22.5
2018-06-19T12:24:19.002Z,22.4
2018-06-19T12:25:20.402Z,22.3
2018-06-19T12:26:21.801Z,22.4
2018-06-19T12:27:23.201Z,22.5
2018-06-19T12:28:24.598Z,22.6
2018-06-19T12:29:25.999Z,22.7
2018-06-19T12:30:27.393Z,22.7
2018-06-19T12:31:28.797Z,22.9
2018-06-19T12:32:30.196Z,23.0
2018-06-19T12:33:31.596Z,22.9
2018-06-19T12:34:32.994Z,23.0
2018-06-19T12:35:34.398Z,23.2
2018-06-19T12:36:35.795Z,23.2
2018-06-19T12:37:37.191Z,23.4
2018-06-19T12:38:38.594Z,23.5
2018-06-19T12:39:39.992Z,23.7
2018-06-19T12:40:41.395Z,23.7
2018-06-19T12:41:42.821Z,23.7
2018-06-19T12:42:44.196Z,23.7
2018-06-19T12:43:45.598Z,23.5
2018-06-19T12:44:46.996Z,23.5
2018-06-19T12:45:48.399Z,23.4
2018-06-19T12:46:49.833Z,23.4
2018-06-19T12:47:51.199Z,23.4
2018-06-19T12:48:52.598Z,23.4
2018-06-19T12:49:54.019Z,23.3
2018-06-19T12:50:55.397Z,23.1
2018-06-19T12:51:56.840Z,23.1
2018-06-19T12:52:58.264Z,23.1
2018-06-19T12:53:59.660Z,23.2
2018-06-19T12:55:01.061Z,23.0
2018-06-19T12:56:02.461Z,23.1
2018-06-19T12:57:03.860Z,23.2
2018-06-19T12:58:05.265Z,23.3
2018-06-19T12:59:06.661Z,23.3
2018-06-19T13:00:08.063Z,23.4
2018-06-19T13:01:09.465Z,23.3
2018-06-19T13:02:10.868Z,23.6
2018-06-19T13:03:12.269Z,23.8
2018-06-19T13:04:13.667Z,23.8
2018-06-19T13:05:15.074Z,23.7
2018-06-19T13:06:16.463Z,23.8
2018-06-19T13:07:17.864Z,24.0
2018-06-19T13:08:19.272Z,24.0
2018-06-19T13:09:20.667Z,24.0
2018-06-19T13:10:22.065Z,24.0
2018-06-19T13:11:23.477Z,24.0
2018-06-19T13:12:24.879Z,23.9
2018-06-19T13:13:26.286Z,24.0
2018-06-19T13:14:27.679Z,24.1
2018-06-19T13:15:29.077Z,23.9
2018-06-19T13:16:30.481Z,24.0
2018-06-19T13:17:31.929Z,23.9
2018-06-19T13:18:33.279Z,23.8
2018-06-19T13:19:34.677Z,23.8
2018-06-19T13:20:36.077Z,23.7
2018-06-19T13:21:37.476Z,23.7
2018-06-19T13:22:38.875Z,23.6
2018-06-19T13:23:40.336Z,23.6
2018-06-19T13:24:41.679Z,23.4
2018-06-19T13:25:43.079Z,23.4
2018-06-19T13:26:44.472Z,23.2
2018-06-19T13:27:45.872Z,23.1
2018-06-19T13:28:47.272Z,22.9
2018-06-19T13:29:48.670Z,22.9
2018-06-19T13:30:50.077Z,22.8
2018-06-19T13:31:51.474Z,22.8
2018-06-19T13:32:52.879Z,22.7
2018-06-19T13:33:54.275Z,22.7
2018-06-19T13:34:55.675Z,22.5
2018-06-19T13:35:57.074Z,22.5
2018-06-19T13:36:58.474Z,22.6